createdAt,value
2019-03-24T00:01:47.765Z,23.9
2019-03-24T00:11:46.980Z,24.3
2019-03-24T00:23:37.384Z,24.4
2019-03-24T00:33:36.601Z,24.2
2019-03-24T00:43:35.816Z,24
2019-03-24T00:53:35.031Z,24.2
2019-03-24T01:03:34.248Z,23.9
2019-03-24T01:13:33.465Z,23.6
2019-03-24T01:23:32.690Z,24.8
2019-03-24T01:33:32.008Z,25.2
2019-03-24T01:43:31.328Z,24.7
2019-03-24T01:53:30.645Z,24
2019-03-24T02:03:29.967Z,24
2019-03-24T02:13:29.281Z,23.7
2019-03-24T02:23:28.547Z,24.8
2019-03-24T02:33:27.766Z,25.1
2019-03-24T02:43:26.982Z,24.8
2019-03-24T02:56:09.107Z,24.4
2019-03-24T03:06:08.322Z,23.9
2019-03-24T03:16:07.540Z,24
2019-03-24T03:26:06.748Z,24.2
2019-03-24T03:36:05.963Z,24.1
2019-03-24T03:43:49.112Z,23.9
2019-03-24T03:53:48.296Z,23.4
2019-03-24T04:03:47.513Z,24.1
2019-03-24T04:08:47.479Z,24.3
2019-03-24T04:18:46.712Z,24.6
2019-03-24T04:28:45.906Z,24.4
2019-03-24T04:38:45.121Z,24.1
2019-03-24T04:48:44.334Z,23.9
2019-03-24T04:58:43.552Z,23.4
2019-03-24T05:08:42.781Z,24.1
2019-03-24T05:18:42.099Z,25.2
2019-03-24T05:28:41.414Z,24.9
2019-03-24T05:38:40.731Z,24.6
2019-03-24T05:48:40.052Z,24.3
2019-03-24T05:58:39.372Z,24.4
2019-03-24T06:08:38.641Z,24.6
2019-03-24T06:18:37.859Z,24.6
2019-03-24T06:28:37.067Z,24.8
2019-03-24T06:34:50.225Z,24.9
2019-03-24T06:44:49.421Z,25.2
2019-03-24T06:54:48.637Z,25.4
2019-03-24T07:05:10.170Z,25.8
2019-03-24T07:15:09.388Z,26.1
2019-03-24T07:25:08.602Z,26.2
2019-03-24T07:35:07.823Z,26.3
2019-03-24T07:45:07.035Z,26.6
2019-03-24T07:55:06.255Z,26.8
2019-03-24T08:05:05.492Z,26.8
2019-03-24T08:15:04.812Z,26.7
2019-03-24T08:25:04.136Z,26.4
2019-03-24T08:35:03.457Z,26.1
2019-03-24T08:45:02.775Z,26
2019-03-24T08:55:02.103Z,25.9
2019-03-24T09:05:01.373Z,26.3
2019-03-24T09:15:00.592Z,26.6
2019-03-24T09:24:59.808Z,26.8
2019-03-24T09:34:59.026Z,26.7
2019-03-24T09:44:58.244Z,26.6
2019-03-24T09:54:57.462Z,26.6
2019-03-24T10:04:56.683Z,26.4
2019-03-24T10:14:55.900Z,25.6
2019-03-24T10:24:55.119Z,24.8
2019-03-24T10:34:54.339Z,25.6
2019-03-24T10:39:45.709Z,26.1
2019-03-24T10:49:44.926Z,26.9
2019-03-24T10:59:44.142Z,27.1
2019-03-24T11:09:45.033Z,26.4
2019-03-24T11:19:42.583Z,25.8
2019-03-24T11:29:41.799Z,25.6
2019-03-24T11:39:41.038Z,25.6
2019-03-24T11:49:45.869Z,25.5
2019-03-24T11:59:39.687Z,25.4
2019-03-24T12:09:39.018Z,25.3
2019-03-24T12:19:38.329Z,25.1
2019-03-24T12:29:37.752Z,25
2019-03-24T12:39:36.921Z,24.9
2019-03-24T12:49:36.136Z,24.8
2019-03-24T12:59:35.353Z,24.6
2019-03-24T13:09:34.571Z,24.6
2019-03-24T13:19:35.943Z,24.4
2019-03-24T13:26:24.198Z,24.4
2019-03-24T13:36:23.417Z,24.3
2019-03-24T13:43:57.674Z,24.3
2019-03-24T13:55:57.947Z,24.1
2019-03-24T14:05:57.164Z,24
2019-03-24T14:15:56.381Z,24
2019-03-24T14:25:55.599Z,23.9
2019-03-24T14:35:54.820Z,23.8
2019-03-24T14:45:54.035Z,23.8
2019-03-24T14:55:53.280Z,23.7
2019-03-24T15:05:52.606Z,23.6
2019-03-24T15:15:51.921Z,23.6
2019-03-24T15:23:40.708Z,23.5
2019-03-24T15:33:39.928Z,23.4
2019-03-24T15:43:41.069Z,23.4
2019-03-24T15:53:38.359Z,23.4
2019-03-24T16:03:37.576Z,23.4
2019-03-24T16:13:36.794Z,23.3
2019-03-24T16:23:36.020Z,23.3
2019-03-24T16:29:33.855Z,23.3
2019-03-24T16:39:33.071Z,23.2
2019-03-24T16:49:32.293Z,23.1
2019-03-24T16:55:00.751Z,23.1
2019-03-24T17:04:59.958Z,23.1
2019-03-24T17:14:59.175Z,23.1
2019-03-24T17:24:58.394Z,23.1
2019-03-24T17:34:57.611Z,23
2019-03-24T17:44:56.827Z,23
2019-03-24T17:54:56.068Z,23
2019-03-24T18:04:55.390Z,23.1
2019-03-24T18:14:54.710Z,23.1
2019-03-24T18:24:54.034Z,23.1
2019-03-24T18:34:53.363Z,23.1
2019-03-24T18:44:52.678Z,23.1
2019-03-24T18:54:51.980Z,23.2
2019-03-24T19:04:51.166Z,23.3
2019-03-24T19:14:50.385Z,23.3
2019-03-24T19:24:49.611Z,23.3
2019-03-24T19:34:48.821Z,23.3
2019-03-24T19:44:48.044Z,23.3
2019-03-24T19:54:47.258Z,23.3
2019-03-24T20:04:46.477Z,23.3
2019-03-24T20:14:45.696Z,23.3
2019-03-24T20:24:44.914Z,23.2
2019-03-24T20:34:44.133Z,23.3
2019-03-24T20:44:43.351Z,23.4
2019-03-24T20:54:42.570Z,23.4
2019-03-24T21:04:41.790Z,23.3
2019-03-24T21:14:41.011Z,23.3
2019-03-24T21:24:40.227Z,23.2
2019-03-24T21:34:39.445Z,23.1
2019-03-24T21:44:38.663Z,23.1
2019-03-24T21:49:18.589Z,23.1
2019-03-24T22:01:40.009Z,23
2019-03-24T22:11:39.225Z,23
2019-03-24T22:21:38.438Z,22.9
2019-03-24T22:31:37.655Z,22.9
2019-03-24T22:35:40.054Z,22.9
2019-03-24T22:46:35.505Z,22.9
2019-03-24T22:56:34.729Z,22.8
2019-03-24T23:06:33.938Z,22.8
2019-03-24T23:16:33.157Z,22.8
2019-03-24T23:26:32.378Z,22.8
2019-03-24T23:36:31.587Z,22.8
2019-03-24T23:46:30.809Z,22.7
2019-03-24T23:56:30.130Z,22.7
